sensor_id;sensor_type;location;lat;lon;timestamp;pressure;altitude;pressure_sealevel;temperature
45701;BMP280;36277;32.852;-116.998;2023-11-22T00:01:10;100703.72;;;26.11
45701;BMP280;36277;32.852;-116.998;2023-11-22T00:03:37;100711.34;;;26.09
45701;BMP280;36277;32.852;-116.998;2023-11-22T00:06:04;100711.34;;;26.09
45701;BMP280;36277;32.852;-116.998;2023-11-22T00:08:30;100710.59;;;26.15
45701;BMP280;36277;32.852;-116.998;2023-11-22T00:10:56;100699.69;;;26.14
45701;BMP280;36277;32.852;-116.998;2023-11-22T00:13:23;100708.19;;;26.27
45701;BMP280;36277;32.852;-116.998;2023-11-22T00:15:49;100704.53;;;26.26
45701;BMP280;36277;32.852;-116.998;2023-11-22T00:18:16;100707.31;;;26.26
45701;BMP280;36277;32.852;-116.998;2023-11-22T00:20:42;100704.16;;;26.29
45701;BMP280;36277;32.852;-116.998;2023-11-22T00:23:09;100704.81;;;26.31
45701;BMP280;36277;32.852;-116.998;2023-11-22T00:25:35;100711.69;;;26.35
45701;BMP280;36277;32.852;-116.998;2023-11-22T00:28:01;100704.81;;;26.31
45701;BMP280;36277;32.852;-116.998;2023-11-22T00:30:28;100706.09;;;26.29
45701;BMP280;36277;32.852;-116.998;2023-11-22T00:32:54;100704.81;;;26.31
45701;BMP280;36277;32.852;-116.998;2023-11-22T00:35:20;100703.09;;;26.30
45701;BMP280;36277;32.852;-116.998;2023-11-22T00:37:46;100710.34;;;26.31
45701;BMP280;36277;32.852;-116.998;2023-11-22T00:40:13;100710.75;;;26.28
45701;BMP280;36277;32.852;-116.998;2023-11-22T00:42:40;100702.25;;;26.30
45701;BMP280;36277;32.852;-116.998;2023-11-22T00:45:09;100714.47;;;26.35
45701;BMP280;36277;32.852;-116.998;2023-11-22T00:47:36;100705.97;;;26.37
45701;BMP280;36277;32.852;-116.998;2023-11-22T00:50:03;100712.63;;;26.42
45701;BMP280;36277;32.852;-116.998;2023-11-22T00:52:30;100715.13;;;26.37
45701;BMP280;36277;32.852;-116.998;2023-11-22T00:54:57;100719.31;;;26.33
45701;BMP280;36277;32.852;-116.998;2023-11-22T00:57:23;100721.44;;;26.31
45701;BMP280;36277;32.852;-116.998;2023-11-22T00:59:50;100721.91;;;26.35
45701;BMP280;36277;32.852;-116.998;2023-11-22T01:02:16;100716.84;;;26.38
45701;BMP280;36277;32.852;-116.998;2023-11-22T01:04:42;100721.72;;;26.36
45701;BMP280;36277;32.852;-116.998;2023-11-22T01:07:09;100729.63;;;26.39
45701;BMP280;36277;32.852;-116.998;2023-11-22T01:09:35;100730.88;;;26.37
45701;BMP280;36277;32.852;-116.998;2023-11-22T01:12:02;100723.16;;;26.32
45701;BMP280;36277;32.852;-116.998;2023-11-22T01:14:28;100730.88;;;26.37
45701;BMP280;36277;32.852;-116.998;2023-11-22T01:16:55;100730.22;;;26.35
45701;BMP280;36277;32.852;-116.998;2023-11-22T01:19:21;100738.78;;;26.39
45701;BMP280;36277;32.852;-116.998;2023-11-22T01:21:48;100734.22;;;26.32
45701;BMP280;36277;32.852;-116.998;2023-11-22T01:24:14;100743.00;;;26.36
45701;BMP280;36277;32.852;-116.998;2023-11-22T01:26:40;100746.81;;;26.35
45701;BMP280;36277;32.852;-116.998;2023-11-22T01:29:06;100751.31;;;26.36
45701;BMP280;36277;32.852;-116.998;2023-11-22T01:31:33;100755.97;;;26.35
45701;BMP280;36277;32.852;-116.998;2023-11-22T01:33:59;100750.72;;;26.40
45701;BMP280;36277;32.852;-116.998;2023-11-22T01:36:26;100752.16;;;26.36
45701;BMP280;36277;32.852;-116.998;2023-11-22T01:38:53;100758.75;;;26.35
45701;BMP280;36277;32.852;-116.998;2023-11-22T01:41:20;100759.41;;;26.37
45701;BMP280;36277;32.852;-116.998;2023-11-22T01:43:47;100773.03;;;26.38
45701;BMP280;36277;32.852;-116.998;2023-11-22T01:46:22;100767.66;;;26.45
45701;BMP280;36277;32.852;-116.998;2023-11-22T01:48:50;100769.22;;;26.39
45701;BMP280;36277;32.852;-116.998;2023-11-22T01:51:21;100770.88;;;26.34
45701;BMP280;36277;32.852;-116.998;2023-11-22T01:53:50;100764.94;;;26.37
45701;BMP280;36277;32.852;-116.998;2023-11-22T01:56:20;100773.47;;;26.36
45701;BMP280;36277;32.852;-116.998;2023-11-22T01:58:47;100772.19;;;26.38
45701;BMP280;36277;32.852;-116.998;2023-11-22T02:01:15;100777.72;;;26.38
45701;BMP280;36277;32.852;-116.998;2023-11-22T02:03:41;100779.84;;;26.36
45701;BMP280;36277;32.852;-116.998;2023-11-22T02:06:08;100777.44;;;26.33
45701;BMP280;36277;32.852;-116.998;2023-11-22T02:08:37;100781.25;;;26.32
45701;BMP280;36277;32.852;-116.998;2023-11-22T02:11:04;100772.78;;;26.34
45701;BMP280;36277;32.852;-116.998;2023-11-22T02:13:31;100772.13;;;26.32
45701;BMP280;36277;32.852;-116.998;2023-11-22T02:15:57;100772.13;;;26.32
45701;BMP280;36277;32.852;-116.998;2023-11-22T02:18:28;100767.72;;;26.37
45701;BMP280;36277;32.852;-116.998;2023-11-22T02:20:54;100771.25;;;26.31
45701;BMP280;36277;32.852;-116.998;2023-11-22T02:23:20;100775.06;;;26.30
45701;BMP280;36277;32.852;-116.998;2023-11-22T02:25:48;100775.28;;;26.29
45701;BMP280;36277;32.852;-116.998;2023-11-22T02:28:14;100779.09;;;26.28
45701;BMP280;36277;32.852;-116.998;2023-11-22T02:30:42;100782.53;;;26.30
45701;BMP280;36277;32.852;-116.998;2023-11-22T02:33:08;100788.44;;;26.27
45701;BMP280;36277;32.852;-116.998;2023-11-22T02:35:34;100777.53;;;26.25
45701;BMP280;36277;32.852;-116.998;2023-11-22T02:38:01;100780.13;;;26.27
45701;BMP280;36277;32.852;-116.998;2023-11-22T02:40:27;100780.97;;;26.27
45701;BMP280;36277;32.852;-116.998;2023-11-22T02:42:54;100770.78;;;26.28
45701;BMP280;36277;32.852;-116.998;2023-11-22T02:45:28;100772.97;;;26.32
45701;BMP280;36277;32.852;-116.998;2023-11-22T02:47:54;100778.03;;;26.29
45701;BMP280;36277;32.852;-116.998;2023-11-22T02:50:21;100775.84;;;26.24
45701;BMP280;36277;32.852;-116.998;2023-11-22T02:52:47;100773.47;;;26.21
45701;BMP280;36277;32.852;-116.998;2023-11-22T02:55:13;100778.63;;;26.24
45701;BMP280;36277;32.852;-116.998;2023-11-22T02:57:40;100772.97;;;26.18
45701;BMP280;36277;32.852;-116.998;2023-11-22T03:00:10;100772.81;;;26.19
45701;BMP280;36277;32.852;-116.998;2023-11-22T03:02:43;100777.47;;;26.19
45701;BMP280;36277;32.852;-116.998;2023-11-22T03:05:09;100770.59;;;26.15
45701;BMP280;36277;32.852;-116.998;2023-11-22T03:07:37;100774.91;;;26.17
45701;BMP280;36277;32.852;-116.998;2023-11-22T03:10:04;100780.06;;;26.06
45701;BMP280;36277;32.852;-116.998;2023-11-22T03:12:30;100777.84;;;26.01
45701;BMP280;36277;32.852;-116.998;2023-11-22T03:14:57;100775.16;;;25.79
45701;BMP280;36277;32.852;-116.998;2023-11-22T03:17:29;100783.91;;;25.68
45701;BMP280;36277;32.852;-116.998;2023-11-22T03:19:57;100786.44;;;25.40
45701;BMP280;36277;32.852;-116.998;2023-11-22T03:22:24;100791.72;;;25.27
45701;BMP280;36277;32.852;-116.998;2023-11-22T03:24:50;100787.22;;;25.27
45701;BMP280;36277;32.852;-116.998;2023-11-22T03:27:17;100782.56;;;25.27
45701;BMP280;36277;32.852;-116.998;2023-11-22T03:29:43;100788.41;;;25.32
45701;BMP280;36277;32.852;-116.998;2023-11-22T03:32:10;100779.75;;;25.35
45701;BMP280;36277;32.852;-116.998;2023-11-22T03:34:37;100780.91;;;25.40
45701;BMP280;36277;32.852;-116.998;2023-11-22T03:37:03;100774.63;;;25.46
45701;BMP280;36277;32.852;-116.998;2023-11-22T03:39:29;100779.22;;;25.54
45701;BMP280;36277;32.852;-116.998;2023-11-22T03:41:56;100776.09;;;25.57
45701;BMP280;36277;32.852;-116.998;2023-11-22T03:44:23;100786.56;;;25.61
45701;BMP280;36277;32.852;-116.998;2023-11-22T03:46:49;100784.47;;;25.63
45701;BMP280;36277;32.852;-116.998;2023-11-22T03:49:15;100789.25;;;25.69
45701;BMP280;36277;32.852;-116.998;2023-11-22T03:51:42;100791.06;;;25.77
45701;BMP280;36277;32.852;-116.998;2023-11-22T03:54:09;100789.16;;;25.77
45701;BMP280;36277;32.852;-116.998;2023-11-22T03:56:36;100793.78;;;25.85
45701;BMP280;36277;32.852;-116.998;2023-11-22T03:59:03;100793.88;;;25.91
45701;BMP280;36277;32.852;-116.998;2023-11-22T04:01:35;100790.25;;;25.91
45701;BMP280;36277;32.852;-116.998;2023-11-22T04:04:02;100794.94;;;25.90
45701;BMP280;36277;32.852;-116.998;2023-11-22T04:06:28;100799.88;;;25.95
45701;BMP280;36277;32.852;-116.998;2023-11-22T04:08:54;100806.28;;;25.95
45701;BMP280;36277;32.852;-116.998;2023-11-22T04:11:20;100795.69;;;25.99
45701;BMP280;36277;32.852;-116.998;2023-11-22T04:13:48;100801.22;;;25.99
45701;BMP280;36277;32.852;-116.998;2023-11-22T04:16:14;100798.25;;;26.00
45701;BMP280;36277;32.852;-116.998;2023-11-22T04:18:41;100788.53;;;26.04
45701;BMP280;36277;32.852;-116.998;2023-11-22T04:21:07;100775.00;;;26.09
45701;BMP280;36277;32.852;-116.998;2023-11-22T04:23:34;100785.38;;;26.07
45701;BMP280;36277;32.852;-116.998;2023-11-22T04:26:02;100785.97;;;26.17
45701;BMP280;36277;32.852;-116.998;2023-11-22T04:28:28;100782.63;;;26.07
45701;BMP280;36277;32.852;-116.998;2023-11-22T04:30:57;100802.56;;;25.88
45701;BMP280;36277;32.852;-116.998;2023-11-22T04:33:24;100787.25;;;25.63
45701;BMP280;36277;32.852;-116.998;2023-11-22T04:35:51;100789.44;;;25.68
45701;BMP280;36277;32.852;-116.998;2023-11-22T04:38:17;100791.66;;;25.72
45701;BMP280;36277;32.852;-116.998;2023-11-22T04:40:44;100794.34;;;25.80
45701;BMP280;36277;32.852;-116.998;2023-11-22T04:43:11;100802.97;;;25.77
45701;BMP280;36277;32.852;-116.998;2023-11-22T04:45:37;100791.41;;;25.82
45701;BMP280;36277;32.852;-116.998;2023-11-22T04:48:05;100802.94;;;25.85
45701;BMP280;36277;32.852;-116.998;2023-11-22T04:50:34;100793.78;;;25.85
45701;BMP280;36277;32.852;-116.998;2023-11-22T04:53:00;100799.50;;;25.83
45701;BMP280;36277;32.852;-116.998;2023-11-22T04:55:29;100797.88;;;25.89
45701;BMP280;36277;32.852;-116.998;2023-11-22T04:57:56;100796.66;;;25.91
45701;BMP280;36277;32.852;-116.998;2023-11-22T05:00:22;100800.09;;;25.93
45701;BMP280;36277;32.852;-116.998;2023-11-22T05:02:51;100794.72;;;25.92
45701;BMP280;36277;32.852;-116.998;2023-11-22T05:05:17;100789.19;;;25.92
45701;BMP280;36277;32.852;-116.998;2023-11-22T05:07:43;100790.44;;;25.89
45701;BMP280;36277;32.852;-116.998;2023-11-22T05:10:15;100791.88;;;25.85
45701;BMP280;36277;32.852;-116.998;2023-11-22T05:12:42;100788.91;;;25.87
45701;BMP280;36277;32.852;-116.998;2023-11-22T05:15:10;100779.75;;;25.86
45701;BMP280;36277;32.852;-116.998;2023-11-22T05:17:37;100778.91;;;25.86
45701;BMP280;36277;32.852;-116.998;2023-11-22T05:20:04;100781.19;;;25.82
45701;BMP280;36277;32.852;-116.998;2023-11-22T05:22:34;100788.44;;;25.83
45701;BMP280;36277;32.852;-116.998;2023-11-22T05:25:01;100776.69;;;25.81
45701;BMP280;36277;32.852;-116.998;2023-11-22T05:27:27;100773.94;;;25.81
45701;BMP280;36277;32.852;-116.998;2023-11-22T05:29:54;100769.28;;;25.82
45701;BMP280;36277;32.852;-116.998;2023-11-22T05:32:20;100780.34;;;25.82
45701;BMP280;36277;32.852;-116.998;2023-11-22T05:34:47;100778.41;;;25.82
45701;BMP280;36277;32.852;-116.998;2023-11-22T05:37:13;100776.53;;;25.83
45701;BMP280;36277;32.852;-116.998;2023-11-22T05:39:39;100769.63;;;25.79
45701;BMP280;36277;32.852;-116.998;2023-11-22T05:42:06;100767.91;;;25.78
45701;BMP280;36277;32.852;-116.998;2023-11-22T05:44:32;100771.88;;;25.75
45701;BMP280;36277;32.852;-116.998;2023-11-22T05:46:59;100768.28;;;25.75
45701;BMP280;36277;32.852;-116.998;2023-11-22T05:49:25;100761.88;;;25.74
45701;BMP280;36277;32.852;-116.998;2023-11-22T05:51:51;100773.72;;;25.68
45701;BMP280;36277;32.852;-116.998;2023-11-22T05:54:18;100768.47;;;25.73
45701;BMP280;36277;32.852;-116.998;2023-11-22T05:56:44;100769.69;;;25.71
45701;BMP280;36277;32.852;-116.998;2023-11-22T05:59:10;100770.75;;;25.70
45701;BMP280;36277;32.852;-116.998;2023-11-22T06:01:36;100772.38;;;25.64
45701;BMP280;36277;32.852;-116.998;2023-11-22T06:04:03;100785.53;;;25.62
45701;BMP280;36277;32.852;-116.998;2023-11-22T06:06:29;100785.16;;;25.65
45701;BMP280;36277;32.852;-116.998;2023-11-22T06:08:56;100779.78;;;25.64
45701;BMP280;36277;32.852;-116.998;2023-11-22T06:11:23;100774.75;;;25.67
45701;BMP280;36277;32.852;-116.998;2023-11-22T06:13:51;100779.91;;;25.70
45701;BMP280;36277;32.852;-116.998;2023-11-22T06:16:17;100783.53;;;25.71
45701;BMP280;36277;32.852;-116.998;2023-11-22T06:18:43;100786.50;;;25.69
45701;BMP280;36277;32.852;-116.998;2023-11-22T06:21:10;100782.69;;;25.70
45701;BMP280;36277;32.852;-116.998;2023-11-22T06:23:36;100775.44;;;25.69
45701;BMP280;36277;32.852;-116.998;2023-11-22T06:26:03;100771.78;;;25.69
45701;BMP280;36277;32.852;-116.998;2023-11-22T06:28:29;100761.31;;;25.64
45701;BMP280;36277;32.852;-116.998;2023-11-22T06:30:55;100767.69;;;25.65
45701;BMP280;36277;32.852;-116.998;2023-11-22T06:33:21;100779.13;;;25.62
45701;BMP280;36277;32.852;-116.998;2023-11-22T06:35:48;100781.41;;;25.58
45701;BMP280;36277;32.852;-116.998;2023-11-22T06:38:14;100772.28;;;25.58
45701;BMP280;36277;32.852;-116.998;2023-11-22T06:40:40;100778.16;;;25.55
45701;BMP280;36277;32.852;-116.998;2023-11-22T06:43:06;100787.50;;;25.54
45701;BMP280;36277;32.852;-116.998;2023-11-22T06:45:33;100784.06;;;25.52
45701;BMP280;36277;32.852;-116.998;2023-11-22T06:47:59;100786.16;;;25.50
45701;BMP280;36277;32.852;-116.998;2023-11-22T06:50:26;100769.94;;;25.47
45701;BMP280;36277;32.852;-116.998;2023-11-22T06:52:52;100775.84;;;25.44
45701;BMP280;36277;32.852;-116.998;2023-11-22T06:55:19;100763.06;;;25.43
45701;BMP280;36277;32.852;-116.998;2023-11-22T06:57:45;100769.84;;;25.40
45701;BMP280;36277;32.852;-116.998;2023-11-22T07:00:12;100771.94;;;25.38
45701;BMP280;36277;32.852;-116.998;2023-11-22T07:02:39;100763.81;;;25.37
45701;BMP280;36277;32.852;-116.998;2023-11-22T07:05:05;100767.63;;;25.36
45701;BMP280;36277;32.852;-116.998;2023-11-22T07:07:35;100765.25;;;25.33
45701;BMP280;36277;32.852;-116.998;2023-11-22T07:10:02;100756.47;;;25.29
45701;BMP280;36277;32.852;-116.998;2023-11-22T07:12:28;100769.44;;;25.29
45701;BMP280;36277;32.852;-116.998;2023-11-22T07:14:54;100755.13;;;25.26
45701;BMP280;36277;32.852;-116.998;2023-11-22T07:17:21;100767.22;;;25.25
45701;BMP280;36277;32.852;-116.998;2023-11-22T07:19:48;100749.13;;;25.22
45701;BMP280;36277;32.852;-116.998;2023-11-22T07:22:15;100749.31;;;25.21
45701;BMP280;36277;32.852;-116.998;2023-11-22T07:24:45;100748.63;;;25.19
45701;BMP280;36277;32.852;-116.998;2023-11-22T07:27:11;100767.31;;;25.17
45701;BMP280;36277;32.852;-116.998;2023-11-22T07:29:42;100761.94;;;25.15
45701;BMP280;36277;32.852;-116.998;2023-11-22T07:32:09;100763.00;;;25.14
45701;BMP280;36277;32.852;-116.998;2023-11-22T07:34:37;100759.50;;;25.12
45701;BMP280;36277;32.852;-116.998;2023-11-22T07:37:03;100755.44;;;25.08
45701;BMP280;36277;32.852;-116.998;2023-11-22T07:39:29;100753.88;;;25.06
45701;BMP280;36277;32.852;-116.998;2023-11-22T07:41:56;100752.16;;;25.05
45701;BMP280;36277;32.852;-116.998;2023-11-22T07:44:22;100748.72;;;25.03
45701;BMP280;36277;32.852;-116.998;2023-11-22T07:46:52;100746.16;;;25.01
45701;BMP280;36277;32.852;-116.998;2023-11-22T07:49:19;100742.72;;;24.99
45701;BMP280;36277;32.852;-116.998;2023-11-22T07:51:49;100740.13;;;24.98
45701;BMP280;36277;32.852;-116.998;2023-11-22T07:54:21;100733.97;;;24.96
45701;BMP280;36277;32.852;-116.998;2023-11-22T07:56:51;100736.03;;;24.94
45701;BMP280;36277;32.852;-116.998;2023-11-22T07:59:21;100731.06;;;24.89
45701;BMP280;36277;32.852;-116.998;2023-11-22T08:01:48;100730.22;;;24.89
45701;BMP280;36277;32.852;-116.998;2023-11-22T08:04:14;100734.00;;;24.88
45701;BMP280;36277;32.852;-116.998;2023-11-22T08:06:42;100724.19;;;24.85
45701;BMP280;36277;32.852;-116.998;2023-11-22T08:09:09;100728.38;;;24.81
45701;BMP280;36277;32.852;-116.998;2023-11-22T08:11:36;100721.97;;;24.81
45701;BMP280;36277;32.852;-116.998;2023-11-22T08:14:03;100720.47;;;24.78
45701;BMP280;36277;32.852;-116.998;2023-11-22T08:16:29;100715.09;;;24.77
45701;BMP280;36277;32.852;-116.998;2023-11-22T08:18:56;100719.09;;;24.74
45701;BMP280;36277;32.852;-116.998;2023-11-22T08:21:23;100715.66;;;24.72
45701;BMP280;36277;32.852;-116.998;2023-11-22T08:23:49;100710.34;;;24.71
45701;BMP280;36277;32.852;-116.998;2023-11-22T08:26:16;100713.28;;;24.69
45701;BMP280;36277;32.852;-116.998;2023-11-22T08:28:42;100705.34;;;24.66
45701;BMP280;36277;32.852;-116.998;2023-11-22T08:31:08;100702.78;;;24.65
45701;BMP280;36277;32.852;-116.998;2023-11-22T08:33:39;100707.63;;;24.63
45701;BMP280;36277;32.852;-116.998;2023-11-22T08:36:06;100711.44;;;24.62
45701;BMP280;36277;32.852;-116.998;2023-11-22T08:38:33;100704.34;;;24.59
45701;BMP280;36277;32.852;-116.998;2023-11-22T08:41:04;100698.00;;;24.59
45701;BMP280;36277;32.852;-116.998;2023-11-22T08:43:34;100695.59;;;24.56
45701;BMP280;36277;32.852;-116.998;2023-11-22T08:46:01;100698.56;;;24.54
45701;BMP280;36277;32.852;-116.998;2023-11-22T08:48:31;100697.00;;;24.52
45701;BMP280;36277;32.852;-116.998;2023-11-22T08:50:57;100690.81;;;24.50
45701;BMP280;36277;32.852;-116.998;2023-11-22T08:53:24;100688.25;;;24.48
45701;BMP280;36277;32.852;-116.998;2023-11-22T08:55:50;100684.78;;;24.46
45701;BMP280;36277;32.852;-116.998;2023-11-22T08:58:19;100679.63;;;24.43
45701;BMP280;36277;32.852;-116.998;2023-11-22T09:00:45;100682.56;;;24.42
45701;BMP280;36277;32.852;-116.998;2023-11-22T09:03:11;100678.09;;;24.41
45701;BMP280;36277;32.852;-116.998;2023-11-22T09:05:44;100678.09;;;24.41
45701;BMP280;36277;32.852;-116.998;2023-11-22T09:08:11;100688.63;;;24.37
45701;BMP280;36277;32.852;-116.998;2023-11-22T09:10:43;100683.28;;;24.36
45701;BMP280;36277;32.852;-116.998;2023-11-22T09:13:10;100674.69;;;24.31
45701;BMP280;36277;32.852;-116.998;2023-11-22T09:15:38;100675.56;;;24.31
45701;BMP280;36277;32.852;-116.998;2023-11-22T09:18:07;100680.56;;;24.28
45701;BMP280;36277;32.852;-116.998;2023-11-22T09:20:33;100676.09;;;24.27
45701;BMP280;36277;32.852;-116.998;2023-11-22T09:23:00;100671.81;;;24.24
45701;BMP280;36277;32.852;-116.998;2023-11-22T09:25:27;100670.94;;;24.24
45701;BMP280;36277;32.852;-116.998;2023-11-22T09:27:55;100667.50;;;24.22
45701;BMP280;36277;32.852;-116.998;2023-11-22T09:30:28;100665.13;;;24.19
45701;BMP280;36277;32.852;-116.998;2023-11-22T09:33:10;100658.94;;;24.17
45701;BMP280;36277;32.852;-116.998;2023-11-22T09:35:37;100653.09;;;24.12
45701;BMP280;36277;32.852;-116.998;2023-11-22T09:38:05;100648.44;;;24.13
45701;BMP280;36277;32.852;-116.998;2023-11-22T09:40:45;100646.91;;;24.10
45701;BMP280;36277;32.852;-116.998;2023-11-22T09:43:13;100643.66;;;24.07
45701;BMP280;36277;32.852;-116.998;2023-11-22T09:45:47;100649.19;;;24.07
45701;BMP280;36277;32.852;-116.998;2023-11-22T09:48:17;100645.91;;;24.03
45701;BMP280;36277;32.852;-116.998;2023-11-22T09:56:11;100653.16;;;23.96
45701;BMP280;36277;32.852;-116.998;2023-11-22T09:58:41;100653.16;;;23.96
45701;BMP280;36277;32.852;-116.998;2023-11-22T10:01:14;100646.13;;;23.94
45701;BMP280;36277;32.852;-116.998;2023-11-22T10:03:42;100645.66;;;23.90
45701;BMP280;36277;32.852;-116.998;2023-11-22T10:06:08;100653.03;;;23.90
45701;BMP280;36277;32.852;-116.998;2023-11-22T10:08:35;100641.53;;;23.86
45701;BMP280;36277;32.852;-116.998;2023-11-22T10:11:03;100648.06;;;23.85
45701;BMP280;36277;32.852;-116.998;2023-11-22T10:13:30;100645.69;;;23.82
45701;BMP280;36277;32.852;-116.998;2023-11-22T10:16:11;100642.25;;;23.80
45701;BMP280;36277;32.852;-116.998;2023-11-22T10:18:48;100641.88;;;23.75
45701;BMP280;36277;32.852;-116.998;2023-11-22T10:21:25;100650.16;;;23.75
45701;BMP280;36277;32.852;-116.998;2023-11-22T10:23:57;100652.41;;;23.72
45701;BMP280;36277;32.852;-116.998;2023-11-22T10:26:24;100649.66;;;23.72
45701;BMP280;36277;32.852;-116.998;2023-11-22T10:28:56;100636.03;;;23.70
45701;BMP280;36277;32.852;-116.998;2023-11-22T10:31:24;100639.00;;;23.69
45701;BMP280;36277;32.852;-116.998;2023-11-22T10:33:51;100642.09;;;23.66
45701;BMP280;36277;32.852;-116.998;2023-11-22T10:36:18;100629.34;;;23.65
45701;BMP280;36277;32.852;-116.998;2023-11-22T10:38:46;100619.38;;;23.64
45701;BMP280;36277;32.852;-116.998;2023-11-22T10:41:13;100621.28;;;23.63
45701;BMP280;36277;32.852;-116.998;2023-11-22T10:43:39;100617.84;;;23.61
45701;BMP280;36277;32.852;-116.998;2023-11-22T10:46:08;100623.34;;;23.61
45701;BMP280;36277;32.852;-116.998;2023-11-22T10:48:38;100611.81;;;23.58
45701;BMP280;36277;32.852;-116.998;2023-11-22T10:51:05;100615.44;;;23.58
45701;BMP280;36277;32.852;-116.998;2023-11-22T10:53:36;100606.13;;;23.59
45701;BMP280;36277;32.852;-116.998;2023-11-22T10:56:16;100604.78;;;23.55
45701;BMP280;36277;32.852;-116.998;2023-11-22T10:58:49;100602.22;;;23.54
45701;BMP280;36277;32.852;-116.998;2023-11-22T11:01:17;100611.50;;;23.53
45701;BMP280;36277;32.852;-116.998;2023-11-22T11:04:02;100604.44;;;23.50
45701;BMP280;36277;32.852;-116.998;2023-11-22T11:06:35;100602.03;;;23.47
45701;BMP280;36277;32.852;-116.998;2023-11-22T11:09:03;100593.97;;;23.46
45701;BMP280;36277;32.852;-116.998;2023-11-22T11:11:41;100587.97;;;23.42
45701;BMP280;36277;32.852;-116.998;2023-11-22T11:14:09;100581.59;;;23.42
45701;BMP280;36277;32.852;-116.998;2023-11-22T11:16:39;100580.75;;;23.41
45701;BMP280;36277;32.852;-116.998;2023-11-22T11:19:15;100578.34;;;23.38
45701;BMP280;36277;32.852;-116.998;2023-11-22T11:21:48;100584.88;;;23.37
45701;BMP280;36277;32.852;-116.998;2023-11-22T11:24:15;100580.41;;;23.36
45701;BMP280;36277;32.852;-116.998;2023-11-22T11:26:48;100580.56;;;23.35
45701;BMP280;36277;32.852;-116.998;2023-11-22T11:29:33;100587.13;;;23.34
45701;BMP280;36277;32.852;-116.998;2023-11-22T11:32:02;100580.09;;;23.31
45701;BMP280;36277;32.852;-116.998;2023-11-22T11:34:29;100583.53;;;23.33
45701;BMP280;36277;32.852;-116.998;2023-11-22T11:36:56;100574.56;;;23.31
45701;BMP280;36277;32.852;-116.998;2023-11-22T11:39:28;100576.84;;;23.28
45701;BMP280;36277;32.852;-116.998;2023-11-22T11:42:14;100571.50;;;23.26
45701;BMP280;36277;32.852;-116.998;2023-11-22T11:47:26;100580.28;;;23.22
45701;BMP280;36277;32.852;-116.998;2023-11-22T11:49:52;100571.53;;;23.18
45701;BMP280;36277;32.852;-116.998;2023-11-22T11:52:22;100581.69;;;23.18
45701;BMP280;36277;32.852;-116.998;2023-11-22T11:54:50;100577.22;;;23.17
45701;BMP280;36277;32.852;-116.998;2023-11-22T11:57:17;100591.31;;;23.14
45701;BMP280;36277;32.852;-116.998;2023-11-22T11:59:44;100589.78;;;23.11
45701;BMP280;36277;32.852;-116.998;2023-11-22T12:02:12;100584.44;;;23.10
45701;BMP280;36277;32.852;-116.998;2023-11-22T12:04:38;100583.59;;;23.09
45701;BMP280;36277;32.852;-116.998;2023-11-22T12:07:08;100585.47;;;23.09
45701;BMP280;36277;32.852;-116.998;2023-11-22T12:09:37;100590.47;;;23.05
45701;BMP280;36277;32.852;-116.998;2023-11-22T12:12:04;100590.47;;;23.05
45701;BMP280;36277;32.852;-116.998;2023-11-22T12:14:40;100599.75;;;23.04
45701;BMP280;36277;32.852;-116.998;2023-11-22T12:17:06;100599.06;;;23.02
45701;BMP280;36277;32.852;-116.998;2023-11-22T12:19:37;100588.06;;;23.02
45701;BMP280;36277;32.852;-116.998;2023-11-22T12:22:05;100580.13;;;22.99
45701;BMP280;36277;32.852;-116.998;2023-11-22T12:24:34;100568.63;;;22.96
45701;BMP280;36277;32.852;-116.998;2023-11-22T12:27:01;100568.63;;;22.96
45701;BMP280;36277;32.852;-116.998;2023-11-22T12:29:28;100563.47;;;22.93
45701;BMP280;36277;32.852;-116.998;2023-11-22T12:31:55;100567.09;;;22.94
45701;BMP280;36277;32.852;-116.998;2023-11-22T12:34:23;100571.94;;;22.92
45701;BMP280;36277;32.852;-116.998;2023-11-22T12:36:56;100575.03;;;22.89
45701;BMP280;36277;32.852;-116.998;2023-11-22T12:39:23;100566.25;;;22.85
45701;BMP280;36277;32.852;-116.998;2023-11-22T12:41:52;100568.16;;;22.85
45701;BMP280;36277;32.852;-116.998;2023-11-22T12:44:20;100563.19;;;22.80
45701;BMP280;36277;32.852;-116.998;2023-11-22T12:46:52;100568.50;;;22.82
45701;BMP280;36277;32.852;-116.998;2023-11-22T12:49:27;100565.25;;;22.78
45701;BMP280;36277;32.852;-116.998;2023-11-22T12:51:55;100565.25;;;22.78
45701;BMP280;36277;32.852;-116.998;2023-11-22T12:54:23;100558.03;;;22.77
45701;BMP280;36277;32.852;-116.998;2023-11-22T12:56:50;100560.94;;;22.76
45701;BMP280;36277;32.852;-116.998;2023-11-22T12:59:20;100559.22;;;22.75
45701;BMP280;36277;32.852;-116.998;2023-11-22T13:01:46;100564.03;;;22.73
45701;BMP280;36277;32.852;-116.998;2023-11-22T13:04:13;100558.72;;;22.71
45701;BMP280;36277;32.852;-116.998;2023-11-22T13:06:40;100550.63;;;22.70
45701;BMP280;36277;32.852;-116.998;2023-11-22T13:09:10;100567.13;;;22.70
45701;BMP280;36277;32.852;-116.998;2023-11-22T13:11:44;100559.06;;;22.68
45701;BMP280;36277;32.852;-116.998;2023-11-22T13:14:10;100555.63;;;22.66
45701;BMP280;36277;32.852;-116.998;2023-11-22T13:16:40;100564.06;;;22.65
45701;BMP280;36277;32.852;-116.998;2023-11-22T13:19:08;100553.91;;;22.65
45701;BMP280;36277;32.852;-116.998;2023-11-22T13:21:35;100549.63;;;22.63
45701;BMP280;36277;32.852;-116.998;2023-11-22T13:24:02;100560.63;;;22.63
45701;BMP280;36277;32.852;-116.998;2023-11-22T13:26:32;100558.91;;;22.62
45701;BMP280;36277;32.852;-116.998;2023-11-22T13:29:06;100569.03;;;22.61
45701;BMP280;36277;32.852;-116.998;2023-11-22T13:31:33;100574.38;;;22.55
45701;BMP280;36277;32.852;-116.998;2023-11-22T13:34:00;100571.44;;;22.56